Latest Weather Observations for Murrurundi Gap

IDN60801

Issued at 7:02 pm EST Monday 31 August 2015 (issued every 30 minutes, with the page automatically refreshed every 10 minutes)

About weather observations | Map of weather stations | Latest weather observations for NSW | Other Formats
Station Details ID: 061392 Name: MURRURUNDI GAP AWS Lat: -31.74 Lon: 150.79 Height: 729.4 m
Data from the previous 72 hours. | See also: Recent months at Murrurundi Gap
Date/Time
EST
Temp
°C
App
Temp
°C
Dew
Point
Rel
Hum
%
Delta-T
°C
Wind Press
QNH
hPa
Press
MSL
hPa
Rain
since 9 am
mm
Dir
 
Spd
km/h
Gust
km/h
Spd
kts
Gust
kts
31/07:00pm 9.8 7.0 5.0 72 2.3 NW 9 11 5 6 1015.6 1015.4 0.0
31/06:30pm 10.2 7.7 5.0 70 2.5 NW 7 9 4 5 1015.4 1015.1 0.0
31/06:00pm 10.3 7.5 5.3 71 2.4 WNW 9 9 5 5 1015.4 1015.1 0.0
31/05:30pm 10.9 7.3 5.0 67 2.8 N 13 15 7 8 1015.1 1014.8 0.0
31/05:00pm 11.5 7.5 4.9 64 3.1 NNW 15 19 8 10 1015.0 1014.7 0.0
31/04:30pm 11.6 6.7 5.0 64 3.1 NNW 20 24 11 13 1014.8 1014.5 0.0
31/04:00pm 12.9 8.6 5.3 60 3.7 NNW 17 24 9 13 1014.8 1014.5 0.0
31/03:30pm 12.0 7.5 4.2 59 3.7 NNW 17 24 9 13 1014.7 1014.4 0.0
31/03:00pm 12.9 8.0 5.3 60 3.7 NNW 20 28 11 15 1014.8 1014.5 0.0
31/02:30pm 12.9 8.3 5.6 61 3.6 NNW 19 26 10 14 1015.0 1014.7 0.0
31/02:00pm 12.6 7.9 5.3 61 3.5 NNW 19 30 10 16 1015.3 1015.0 0.0
31/01:30pm 12.3 7.5 5.5 63 3.3 NW 20 30 11 16 1015.6 1015.4 0.0
31/01:00pm 11.8 6.3 4.1 59 3.6 NNW 22 32 12 17 1015.8 1015.5 0.0
31/12:30pm 12.0 6.6 6.3 68 2.8 NW 24 32 13 17 1016.1 1015.8 0.0
31/12:00pm 10.7 5.3 4.6 66 2.9 NNW 22 28 12 15 1016.4 1016.1 0.0
31/11:30am 10.4 5.1 4.8 68 2.6 NNW 22 30 12 16 1016.8 1016.6 0.0
31/11:00am 10.4 5.5 5.0 69 2.5 NW 20 24 11 13 1017.1 1016.9 0.0
31/10:30am 9.4 3.9 3.8 68 2.6 NNW 22 24 12 13 1017.3 1017.0 0.0
31/10:00am 9.6 4.9 5.2 74 2.1 NNW 19 24 10 13 1017.4 1017.1 0.0
31/09:30am 8.4 3.9 4.0 74 2.0 NNW 17 20 9 11 1017.6 1017.3 0.0
31/09:00am 8.1 3.2 4.1 76 1.8 NNW 19 22 10 12 1017.5 1017.2 0.0
31/08:30am 7.1 2.4 3.0 75 1.8 NNW 17 19 9 10 1017.5 1017.2 0.0
31/08:00am 6.5 2.5 2.9 78 1.6 NNW 13 15 7 8 1017.4 1017.1 0.0
31/07:30am 5.2 1.2 2.7 84 1.1 NW 13 15 7 8 1017.0 1016.8 0.0
31/07:00am 4.6 0.6 2.6 87 0.8 NNW 13 17 7 9 1016.9 1016.7 0.0
31/06:30am 5.3 1.6 2.5 82 1.2 NW 11 13 6 7 1016.8 1016.6 0.0
31/06:00am 6.4 3.7 2.7 77 1.6 SSE 6 7 3 4 1016.6 1016.3 0.0
31/05:30am 5.3 1.6 2.5 82 1.2 SE 11 13 6 7 1016.6 1016.3 0.0
31/05:00am 5.9 1.9 2.7 80 1.4 SSE 13 15 7 8 1016.4 1016.1 0.0
31/04:30am 5.1 1.1 2.8 85 1.0 SE 13 13 7 7 1016.6 1016.3 0.0
31/04:00am 5.5 2.2 2.7 82 1.2 SE 9 11 5 6 1016.5 1016.2 0.0
31/03:30am 5.4 1.3 2.4 81 1.3 SE 13 15 7 8 1016.6 1016.3 0.0
31/03:00am 6.0 2.3 2.3 77 1.6 SE 11 13 6 7 1016.9 1016.7 0.0
31/02:30am 6.5 2.4 2.4 75 1.8 SE 13 15 7 8 1017.1 1016.9 0.0
31/02:00am 6.8 3.1 2.3 73 1.9 SE 11 15 6 8 1017.5 1017.2 0.0
31/01:30am 7.2 3.5 2.1 70 2.2 SE 11 13 6 7 1017.8 1017.5 0.0
31/01:00am 7.6 3.8 1.9 67 2.4 SE 11 17 6 9 1018.1 1017.9 0.0
31/12:30am 7.8 4.3 1.4 64 2.7 SE 9 13 5 7 1018.2 1018.0 0.0
31/12:00am 8.1 4.6 1.5 63 2.8 SE 9 11 5 6 1018.1 1017.9 0.0
 
Date/Time
EST
Temp
°C
App
Temp
°C
Dew
Point
Rel
Hum
%
Delta-T
°C
Wind Press
QNH
hPa
Press
MSL
hPa
Rain
since 9 am
mm
Dir
 
Spd
km/h
Gust
km/h
Spd
kts
Gust
kts
30/11:30pm 7.9 5.4 1.3 63 2.8 SE 4 9 2 5 1018.2 1018.0 0.0
30/11:00pm 8.8 7.0 1.5 60 3.1 CALM 0 0 0 0 1018.2 1018.0 0.0
30/10:30pm 8.0 5.1 1.6 64 2.7 ESE 6 7 3 4 1018.4 1018.2 0.0
30/10:00pm 7.8 4.9 1.6 65 2.6 SE 6 7 3 4 1018.5 1018.3 0.0
30/09:30pm 8.1 5.1 2.1 66 2.6 SSE 7 11 4 6 1018.7 1018.4 0.0
30/09:00pm 7.5 3.7 2.0 68 2.4 SE 11 13 6 7 1018.5 1018.3 0.0
30/08:30pm 7.9 4.1 2.0 66 2.5 SE 11 11 6 6 1018.4 1018.2 0.0
30/08:00pm 7.7 4.4 2.2 68 2.4 SE 9 13 5 7 1018.3 1018.1 0.0
30/07:30pm 7.9 4.6 2.6 69 2.3 SE 9 13 5 7 1018.2 1018.0 0.0
30/07:00pm 8.5 5.2 2.3 65 2.7 SE 9 13 5 7 1018.0 1017.8 0.0
30/06:30pm 8.9 5.9 2.3 63 2.9 SE 7 9 4 5 1017.8 1017.5 0.0
30/06:00pm 9.6 5.5 2.5 61 3.1 S 13 15 7 8 1017.6 1017.3 0.0
30/05:30pm 9.8 5.6 1.9 58 3.5 S 13 15 7 8 1017.4 1017.1 0.0
30/05:00pm 10.5 6.3 1.9 55 3.8 S 13 17 7 9 1017.1 1016.9 0.0
30/04:30pm 11.2 7.8 1.7 52 4.2 SE 9 13 5 7 1017.0 1016.8 0.0
30/04:00pm 11.8 8.1 2.5 53 4.2 SSE 11 13 6 7 1017.0 1016.8 0.0
30/03:30pm 12.9 10.0 4.6 57 4.0 ESE 9 13 5 7 1017.0 1016.8 0.0
30/03:00pm 12.4 8.8 3.1 53 4.3 SE 11 15 6 8 1017.1 1016.9 0.0
30/02:30pm 12.4 9.5 4.4 58 3.8 S 9 15 5 8 1017.1 1016.9 0.0
30/02:00pm 12.7 10.7 4.4 57 3.9 NNE 4 15 2 8 1017.4 1017.1 0.0
30/01:30pm 11.6 8.4 3.1 56 3.9 SSW 9 15 5 8 1017.5 1017.2 0.0
30/01:00pm 12.2 9.1 3.4 55 4.1 E 9 17 5 9 1017.8 1017.5 0.0
30/12:30pm 11.1 7.2 3.2 58 3.6 SE 13 19 7 10 1018.2 1018.0 0.0
30/12:00pm 10.6 7.3 2.2 56 3.7 S 9 15 5 8 1018.7 1018.4 0.0
30/11:30am 10.3 6.5 4.0 65 2.9 SSE 13 17 7 9 1019.2 1019.0 0.0
30/11:00am 9.4 5.4 2.9 64 2.9 ESE 13 22 7 12 1019.5 1019.3 0.0
30/10:30am 9.0 5.1 3.4 68 2.5 SE 13 20 7 11 1019.7 1019.5 0.0
30/10:00am 7.9 3.6 3.0 71 2.2 SE 15 20 8 11 1019.7 1019.5 0.0
30/09:30am 7.4 2.6 2.5 71 2.1 ESE 17 20 9 11 1019.8 1019.6 0.0
30/09:00am 6.5 1.6 2.2 74 1.8 SSE 17 22 9 12 1019.8 1019.6 0.0
30/08:30am 6.1 1.2 2.0 75 1.7 SE 17 20 9 11 1019.7 1019.5 0.0
30/08:00am 5.4 0.9 1.9 78 1.5 SE 15 19 8 10 1019.5 1019.3 0.0
30/07:30am 4.8 0.7 2.2 83 1.1 SE 13 17 7 9 1019.3 1019.1 0.0
30/07:00am 3.4 -1.6 1.4 87 0.8 SE 17 19 9 10 1019.1 1018.9 0.0
30/06:30am 3.3 -0.5 1.5 88 0.7 SE 11 13 6 7 1018.8 1018.5 0.0
30/06:00am 2.7 -2.0 0.8 87 0.8 SE 15 17 8 9 1018.7 1018.4 0.0
30/05:30am 3.5 -0.8 1.1 84 1.0 SE 13 15 7 8 1018.7 1018.4 0.0
30/05:00am 4.4 -0.3 0.6 76 1.5 SE 15 17 8 9 1018.8 1018.5 0.0
30/04:30am 4.7 0.7 0.7 75 1.6 SE 11 13 6 7 1018.9 1018.6 0.0
30/04:00am 4.7 0.4 0.8 76 1.6 ESE 13 17 7 9 1019.1 1018.9 0.0
30/03:30am 5.0 0.7 0.9 75 1.7 SE 13 17 7 9 1019.1 1018.9 0.0
30/03:00am 4.8 0.5 1.3 78 1.4 SE 13 17 7 9 1019.4 1019.2 0.0
30/02:30am 5.6 1.0 1.3 74 1.8 SE 15 19 8 10 1019.5 1019.3 0.0
30/02:00am 6.0 1.4 1.5 73 1.9 SE 15 20 8 11 1019.8 1019.6 0.0
30/01:30am 6.4 1.8 1.5 71 2.1 SE 15 20 8 11 1020.2 1019.9 0.0
30/01:00am 6.4 1.8 1.7 72 2.0 SE 15 19 8 10 1020.5 1020.3 0.0
30/12:30am 6.4 2.3 2.3 75 1.8 SE 13 17 7 9 1021.0 1020.8 0.0
30/12:00am 6.9 2.5 2.6 74 1.9 SE 15 19 8 10 1021.0 1020.8 0.0
 
Date/Time
EST
Temp
°C
App
Temp
°C
Dew
Point
Rel
Hum
%
Delta-T
°C
Wind Press
QNH
hPa
Press
MSL
hPa
Rain
since 9 am
mm
Dir
 
Spd
km/h
Gust
km/h
Spd
kts
Gust
kts
29/11:30pm 7.2 3.3 3.3 76 1.7 SE 13 20 7 11 1021.1 1020.9 0.0
29/11:00pm 7.5 3.9 3.2 74 1.9 SE 11 13 6 7 1020.9 1020.7 0.0
29/10:30pm 7.6 4.1 3.6 76 1.8 SE 11 15 6 8 1020.9 1020.7 0.0
29/10:00pm 7.3 3.9 4.1 80 1.4 ESE 11 13 6 7 1020.8 1020.6 0.0
29/09:30pm 8.1 5.6 3.9 75 1.9 WNW 6 7 3 4 1021.0 1020.8 0.0
29/09:00pm 7.8 4.5 4.4 79 1.5 NW 11 11 6 6 1021.1 1020.9 0.0
29/08:30pm 8.1 5.5 4.3 77 1.7 NNW 7 9 4 5 1021.2 1021.0 0.0
29/08:00pm 8.5 5.2 4.7 77 1.8 NNW 11 13 6 7 1021.0 1020.8 0.0
29/07:30pm 8.3 5.1 5.2 81 1.4 NNW 11 15 6 8 1021.0 1020.8 0.0
29/07:00pm 8.8 6.5 5.5 80 1.6 NW 7 9 4 5 1021.0 1020.8 0.0
29/06:30pm 9.7 7.4 5.9 77 1.8 NW 7 9 4 5 1020.7 1020.5 0.0
29/06:00pm 10.0 7.6 5.4 73 2.2 N 7 9 4 5 1020.3 1020.1 0.0
29/05:30pm 10.6 7.5 5.4 70 2.5 NW 11 13 6 7 1020.2 1019.9 0.0
29/05:00pm 10.9 7.8 5.4 69 2.6 NW 11 13 6 7 1020.0 1019.8 0.0
29/04:30pm 11.1 7.5 5.2 67 2.8 NW 13 17 7 9 1020.0 1019.8 0.0
29/04:00pm 11.9 7.1 5.5 65 3.1 NNW 20 26 11 14 1020.0 1019.8 0.0
29/03:30pm 12.3 7.6 5.2 62 3.4 NNW 19 26 10 14 1020.2 1019.9 0.0
29/03:00pm 12.5 9.5 6.1 65 3.1 NW 11 17 6 9 1020.4 1020.2 0.0
29/02:30pm 12.3 7.6 6.1 66 3.0 NNW 20 26 11 14 1020.5 1020.3 0.0
29/02:00pm 11.2 6.4 5.5 68 2.7 NNW 20 24 11 13 1020.9 1020.7 0.0
29/01:30pm 10.9 5.3 5.2 68 2.7 NNW 24 32 13 17 1021.1 1020.9 0.0
29/01:00pm 10.1 4.9 5.3 72 2.3 NNW 22 32 12 17 1021.5 1021.4 0.0
29/12:30pm 10.0 3.5 4.8 70 2.4 NNW 28 35 15 19 1021.8 1021.6 0.0
29/12:00pm 10.3 3.7 5.9 74 2.1 NNW 30 37 16 20 1022.3 1022.1 0.0
29/11:30am 10.0 3.3 5.4 73 2.2 NNW 30 37 16 20 1022.5 1022.3 0.0
29/11:00am 9.9 4.0 5.7 75 2.0 NNW 26 37 14 20 1022.9 1022.8 0.0
29/10:40am 8.2 1.4 5.0 80 1.5 NNW 30 35 16 19 1023.2 1023.0 0.0
29/10:30am 8.6 2.6 5.4 80 1.5 NW 26 33 14 18 1023.2 1023.0 0.0
29/10:22am 8.7 3.2 5.8 82 1.4 NW 24 33 13 18 1023.3 1023.1 0.0
29/10:03am 8.7 1.4 5.4 80 1.6 NNW 33 43 18 23 1023.4 1023.2 0.0
29/10:00am 8.7 1.0 5.3 79 1.6 NNW 35 43 19 23 1023.4 1023.2 0.0
29/09:30am 8.6 2.4 6.2 85 1.1 NNW 28 35 15 19 1023.6 1023.4 0.0
29/09:22am 8.0 1.7 5.6 85 1.1 NNW 28 35 15 19 1023.6 1023.4 0.0
29/09:00am 7.2 1.2 5.2 87 0.9 NNW 26 32 14 17 1023.5 1023.3 0.0
29/08:30am 6.8 1.2 5.3 90 0.7 NNW 24 30 13 16 1023.4 1023.2 0.0
29/08:00am 5.8 -0.4 4.4 91 0.6 NNW 26 30 14 16 1023.3 1023.1 0.0
29/07:30am 5.2 -0.3 4.2 93 0.4 NNW 22 24 12 13 1023.2 1023.0 0.0
29/07:00am 4.3 -0.6 4.2 99 0.0 NNW 19 20 10 11 1022.9 1022.8 0.0
29/06:30am 3.9 -0.7 3.8 99 0.0 NW 17 20 9 11 1022.8 1022.7 0.0
29/06:00am 3.9 -0.7 3.6 98 0.1 NW 17 20 9 11 1022.5 1022.3 0.0
29/05:30am 4.2 -0.4 3.8 97 0.2 NW 17 19 9 10 1022.4 1022.2 0.0
29/05:00am 4.2 -1.0 3.8 97 0.2 NNW 20 24 11 13 1022.3 1022.1 0.0
29/04:30am 4.1 -1.1 3.4 95 0.3 NW 20 24 11 13 1022.1 1021.9 0.0
29/04:00am 4.6 -0.6 3.6 93 0.4 NNW 20 22 11 12 1022.1 1021.9 0.0
29/03:30am 4.7 0.0 3.4 91 0.6 NW 17 19 9 10 1022.0 1021.8 0.0
29/03:00am 6.1 2.2 3.6 84 1.1 NW 13 15 7 8 1022.2 1022.0 0.0
29/02:30am 6.4 3.9 3.7 83 1.2 NNW 6 7 3 4 1022.6 1022.5 0.0
29/02:00am 6.8 3.8 4.1 83 1.2 NW 9 11 5 6 1022.8 1022.7 0.0
29/01:30am 6.7 4.1 4.2 84 1.1 NNW 7 9 4 5 1023.2 1023.0 0.0
29/01:00am 6.4 4.0 4.1 85 1.0 SE 6 9 3 5 1023.4 1023.2 0.0
29/12:30am 6.3 3.3 4.3 87 0.9 SE 9 11 5 6 1023.5 1023.3 0.0
29/12:00am 6.1 2.8 4.4 89 0.8 SE 11 13 6 7 1023.6 1023.4 0.0
 
Date/Time
EST
Temp
°C
App
Temp
°C
Dew
Point
Rel
Hum
%
Delta-T
°C
Wind Press
QNH
hPa
Press
MSL
hPa
Rain
since 9 am
mm
Dir
 
Spd
km/h
Gust
km/h
Spd
kts
Gust
kts
28/11:30pm 6.0 2.7 4.3 89 0.8 SE 11 13 6 7 1023.7 1023.5 0.0
28/11:00pm 6.2 2.5 4.4 88 0.8 SE 13 13 7 7 1023.7 1023.5 0.0
28/10:30pm 6.3 2.6 4.5 88 0.8 SE 13 15 7 8 1023.8 1023.7 0.0
28/10:00pm 6.8 3.5 4.5 85 1.0 SE 11 11 6 6 1023.9 1023.8 0.0
28/09:30pm 6.7 3.0 4.4 85 1.0 SE 13 15 7 8 1023.9 1023.8 0.0
28/09:00pm 8.0 5.4 4.2 77 1.7 SE 7 9 4 5 1023.9 1023.8 0.0
28/08:30pm 8.1 5.6 4.5 78 1.7 SE 7 9 4 5 1023.9 1023.8 0.0
28/08:00pm 7.6 4.3 4.7 82 1.3 ESE 11 15 6 8 1023.4 1023.2 0.0
28/07:30pm 7.8 4.1 4.4 79 1.6 ESE 13 15 7 8 1022.9 1022.8 0.0

Other Formats:

Comma delimited format used in spreadsheet applications
http://www.bom.gov.au/fwo/IDN60801/IDN60801.95747.axf

JavaScript Object Notation format (JSON) in row-major order
http://www.bom.gov.au/fwo/IDN60801/IDN60801.95747.json